createdAt,value
2022-11-18T00:00:01.441Z,981.05
2022-11-18T00:01:01.428Z,981.00
2022-11-18T00:02:01.460Z,980.98
2022-11-18T00:03:01.417Z,981.05
2022-11-18T00:04:01.406Z,981.06
2022-11-18T00:05:01.385Z,981.07
2022-11-18T00:06:02.396Z,981.03
2022-11-18T00:07:01.455Z,981.09
2022-11-18T00:08:01.381Z,981.12
2022-11-18T00:09:01.420Z,981.08
2022-11-18T00:10:01.366Z,981.09
2022-11-18T00:11:01.387Z,981.09
2022-11-18T00:12:01.346Z,981.12
2022-11-18T00:13:01.352Z,981.09
2022-11-18T00:14:01.348Z,981.10
2022-11-18T00:15:01.332Z,981.16
2022-11-18T00:16:01.346Z,981.13
2022-11-18T00:17:01.324Z,981.19
2022-11-18T00:18:01.333Z,981.15
2022-11-18T00:19:01.308Z,981.19
2022-11-18T00:20:01.319Z,981.19
2022-11-18T00:21:01.308Z,981.24
2022-11-18T00:22:01.291Z,981.15
2022-11-18T00:23:01.318Z,981.23
2022-11-18T00:24:01.267Z,981.27
2022-11-18T00:25:01.276Z,981.18
2022-11-18T00:26:01.296Z,981.21
2022-11-18T00:27:01.258Z,981.21
2022-11-18T00:28:01.257Z,981.20
2022-11-18T00:29:01.268Z,981.20
2022-11-18T00:30:01.235Z,981.21
2022-11-18T00:31:01.238Z,981.23
2022-11-18T00:32:01.251Z,981.19
2022-11-18T00:33:01.274Z,981.23
2022-11-18T00:34:01.414Z,981.23
2022-11-18T00:35:01.226Z,981.22
2022-11-18T00:36:01.224Z,981.27
2022-11-18T00:37:01.198Z,981.16
2022-11-18T00:38:01.217Z,981.24
2022-11-18T00:39:01.189Z,981.17
2022-11-18T00:40:01.202Z,981.20
2022-11-18T00:41:01.180Z,981.18
2022-11-18T00:42:01.170Z,981.20
2022-11-18T00:43:01.219Z,981.19
2022-11-18T00:44:05.098Z,981.15
2022-11-18T00:45:02.183Z,981.19
2022-11-18T00:46:01.148Z,981.20
2022-11-18T00:47:01.160Z,981.12
2022-11-18T00:48:01.134Z,981.14
2022-11-18T00:49:01.124Z,981.14
2022-11-18T00:50:01.136Z,981.14
2022-11-18T00:51:01.132Z,981.11
2022-11-18T00:52:01.109Z,981.09
2022-11-18T00:53:01.108Z,981.12
2022-11-18T00:54:01.098Z,981.11
2022-11-18T00:55:01.092Z,981.09
2022-11-18T00:56:01.149Z,981.14
2022-11-18T00:57:01.068Z,981.05
2022-11-18T00:58:01.065Z,981.13
2022-11-18T00:59:01.093Z,981.10
2022-11-18T01:00:01.048Z,981.14
2022-11-18T01:01:01.092Z,981.13
2022-11-18T01:02:01.076Z,981.14
2022-11-18T01:03:01.100Z,981.09
2022-11-18T01:04:01.029Z,981.16
2022-11-18T01:05:01.029Z,981.22
2022-11-18T01:06:01.148Z,981.19
2022-11-18T01:07:01.035Z,981.17
2022-11-18T01:08:01.021Z,981.08
2022-11-18T01:09:01.021Z,981.14
2022-11-18T01:10:00.997Z,981.17
2022-11-18T01:11:00.990Z,981.18
2022-11-18T01:12:00.992Z,981.17
2022-11-18T01:13:01.012Z,981.16
2022-11-18T01:14:00.974Z,981.21
2022-11-18T01:15:00.986Z,981.15
2022-11-18T01:16:01.022Z,981.24
2022-11-18T01:17:00.956Z,981.19
2022-11-18T01:18:00.981Z,981.23
2022-11-18T01:19:00.933Z,981.26
2022-11-18T01:20:00.931Z,981.30
2022-11-18T01:21:00.937Z,981.25
2022-11-18T01:22:00.918Z,981.24
2022-11-18T01:23:00.920Z,981.26
2022-11-18T01:24:00.970Z,981.28
2022-11-18T01:25:00.900Z,981.27
2022-11-18T01:26:00.929Z,981.33
2022-11-18T01:27:00.906Z,981.29
2022-11-18T01:28:00.884Z,981.26
2022-11-18T01:29:00.896Z,981.28
2022-11-18T01:30:00.876Z,981.29
2022-11-18T01:31:00.868Z,981.32
2022-11-18T01:32:23.452Z,981.35
2022-11-18T01:33:02.870Z,981.35
2022-11-18T01:34:00.856Z,981.30
2022-11-18T01:35:00.856Z,981.30
2022-11-18T01:36:01.065Z,981.35
2022-11-18T01:37:00.854Z,981.34
2022-11-18T01:38:00.813Z,981.33
2022-11-18T01:39:00.836Z,981.36
2022-11-18T01:40:00.828Z,981.40
2022-11-18T01:41:00.854Z,981.43
2022-11-18T01:42:00.809Z,981.38
2022-11-18T01:43:00.800Z,981.40
2022-11-18T01:44:00.790Z,981.42
2022-11-18T01:45:00.809Z,981.39
2022-11-18T01:46:00.798Z,981.39
2022-11-18T01:47:00.772Z,981.40
2022-11-18T01:48:00.809Z,981.44
2022-11-18T01:49:00.757Z,981.42
2022-11-18T01:50:00.764Z,981.45
2022-11-18T01:51:00.772Z,981.37
2022-11-18T01:52:00.740Z,981.42
2022-11-18T01:53:00.767Z,981.45
2022-11-18T01:54:00.732Z,981.51
2022-11-18T01:55:00.720Z,981.49
2022-11-18T01:56:00.710Z,981.46
2022-11-18T01:57:00.725Z,981.47
2022-11-18T01:58:00.699Z,981.45
2022-11-18T01:59:00.702Z,981.47
2022-11-18T02:00:00.711Z,981.48
2022-11-18T02:01:00.712Z,981.48
2022-11-18T02:02:00.734Z,981.48
2022-11-18T02:03:00.689Z,981.45
2022-11-18T02:04:00.657Z,981.42
2022-11-18T02:05:00.673Z,981.47
2022-11-18T02:06:00.661Z,981.45
2022-11-18T02:07:00.689Z,981.45
2022-11-18T02:08:00.624Z,981.41
2022-11-18T02:09:00.647Z,981.49
2022-11-18T02:10:00.625Z,981.47
2022-11-18T02:11:00.627Z,981.47
2022-11-18T02:12:00.694Z,981.49
2022-11-18T02:13:00.607Z,981.51
2022-11-18T02:14:00.592Z,981.48
2022-11-18T02:15:00.595Z,981.49
2022-11-18T02:16:00.627Z,981.52
2022-11-18T02:17:00.564Z,981.45
2022-11-18T02:18:00.589Z,981.50
2022-11-18T02:19:00.556Z,981.56
2022-11-18T02:20:00.584Z,981.49
2022-11-18T02:21:00.573Z,981.50
2022-11-18T02:22:00.548Z,981.50
2022-11-18T02:23:00.550Z,981.48
2022-11-18T02:24:00.545Z,981.46
2022-11-18T02:25:00.537Z,981.53
2022-11-18T02:26:00.510Z,981.53
2022-11-18T02:27:00.510Z,981.56
2022-11-18T02:28:00.546Z,981.52
2022-11-18T02:29:00.510Z,981.50
2022-11-18T02:30:00.490Z,981.50
2022-11-18T02:31:00.500Z,981.57
2022-11-18T02:32:00.512Z,981.53
2022-11-18T02:33:00.473Z,981.60
2022-11-18T02:34:00.469Z,981.57
2022-11-18T02:35:00.494Z,981.60
2022-11-18T02:36:00.461Z,981.69
2022-11-18T02:37:00.457Z,981.67
2022-11-18T02:38:00.445Z,981.70
2022-11-18T02:39:00.442Z,981.66
2022-11-18T02:40:00.445Z,981.67
2022-11-18T02:41:00.473Z,981.67
2022-11-18T02:42:00.422Z,981.69
2022-11-18T02:43:00.421Z,981.75
2022-11-18T02:44:00.402Z,981.74
2022-11-18T02:45:00.433Z,981.72
2022-11-18T02:46:00.406Z,981.74
2022-11-18T02:47:00.426Z,981.70
2022-11-18T02:48:00.373Z,981.74
2022-11-18T02:49:00.385Z,981.79
2022-11-18T02:50:00.409Z,981.78
2022-11-18T02:51:00.364Z,981.79
2022-11-18T02:52:00.401Z,981.76
2022-11-18T02:53:00.353Z,981.77
2022-11-18T02:54:00.367Z,981.76
2022-11-18T02:55:00.378Z,981.76
2022-11-18T02:56:00.331Z,981.73
2022-11-18T02:57:00.351Z,981.80
2022-11-18T02:58:00.339Z,981.75
2022-11-18T02:59:00.320Z,981.77
2022-11-18T03:00:00.343Z,981.75
2022-11-18T03:01:00.435Z,981.82
2022-11-18T03:02:00.414Z,981.81
2022-11-18T03:03:00.298Z,981.86
2022-11-18T03:04:00.286Z,981.78
2022-11-18T03:05:00.290Z,981.77
2022-11-18T03:06:00.993Z,981.87
2022-11-18T03:07:00.384Z,981.88
2022-11-18T03:08:00.278Z,981.82
2022-11-18T03:09:00.283Z,981.85
2022-11-18T03:10:00.246Z,981.82
2022-11-18T03:11:01.274Z,981.87
2022-11-18T03:12:00.254Z,981.80
2022-11-18T03:13:00.230Z,981.80
2022-11-18T03:14:00.236Z,981.84
2022-11-18T03:15:00.224Z,981.81
2022-11-18T03:16:00.266Z,981.84
2022-11-18T03:17:00.206Z,981.81
2022-11-18T03:18:00.216Z,981.87
2022-11-18T03:19:00.222Z,981.88
2022-11-18T03:20:00.192Z,981.85
2022-11-18T03:21:00.219Z,981.89
2022-11-18T03:22:00.194Z,981.88
2022-11-18T03:23:00.205Z,981.84
2022-11-18T03:24:00.198Z,981.85
2022-11-18T03:25:00.172Z,981.80
2022-11-18T03:26:00.165Z,981.83
2022-11-18T03:27:00.194Z,981.88
2022-11-18T03:28:00.125Z,981.90
2022-11-18T03:29:00.134Z,981.93
2022-11-18T03:30:00.168Z,981.89
2022-11-18T03:31:00.105Z,981.92
2022-11-18T03:32:00.134Z,981.96
2022-11-18T03:33:00.145Z,981.90
2022-11-18T03:34:00.118Z,981.86
2022-11-18T03:35:00.101Z,981.92
2022-11-18T03:36:00.138Z,981.91
2022-11-18T03:37:00.933Z,981.98
2022-11-18T03:38:01.069Z,981.96
2022-11-18T03:39:00.419Z,981.95
2022-11-18T03:40:00.057Z,982.01
2022-11-18T03:41:00.066Z,981.98
2022-11-18T03:42:00.084Z,981.99
2022-11-18T03:43:00.043Z,981.98
2022-11-18T03:44:00.057Z,981.99
2022-11-18T03:45:00.056Z,982.05
2022-11-18T03:46:00.067Z,982.04
2022-11-18T03:47:00.019Z,982.03
2022-11-18T03:48:00.021Z,982.00
2022-11-18T03:49:00.027Z,982.00
2022-11-18T03:50:00.047Z,981.98
2022-11-18T03:51:00.026Z,982.03
2022-11-18T03:51:59.983Z,982.00
2022-11-18T03:52:59.991Z,982.08
2022-11-18T03:53:59.999Z,982.08
2022-11-18T03:54:59.993Z,982.08
2022-11-18T03:55:59.974Z,982.11
2022-11-18T03:56:59.974Z,982.10
2022-11-18T03:57:59.947Z,982.11
2022-11-18T03:59:00.016Z,982.08
2022-11-18T03:59:59.955Z,982.14
2022-11-18T04:01:00.939Z,982.12
2022-11-18T04:01:59.988Z,982.09
2022-11-18T04:02:59.937Z,982.11
2022-11-18T04:03:59.931Z,982.07
2022-11-18T04:04:59.971Z,982.12
2022-11-18T04:05:59.905Z,982.13
2022-11-18T04:07:00.006Z,982.14
2022-11-18T04:07:59.890Z,982.19
2022-11-18T04:08:59.894Z,982.20
2022-11-18T04:09:59.923Z,982.21
2022-11-18T04:10:59.893Z,982.17
2022-11-18T04:11:59.868Z,982.16
2022-11-18T04:13:04.809Z,982.19
2022-11-18T04:14:01.862Z,982.17
2022-11-18T04:14:59.864Z,982.25
2022-11-18T04:15:59.866Z,982.20
2022-11-18T04:16:59.813Z,982.25
2022-11-18T04:17:59.860Z,982.28
2022-11-18T04:19:05.714Z,982.30
2022-11-18T04:20:01.835Z,982.35
2022-11-18T04:20:59.852Z,982.28
2022-11-18T04:21:59.876Z,982.31
2022-11-18T04:22:59.855Z,982.29
2022-11-18T04:23:59.783Z,982.26
2022-11-18T04:24:59.811Z,982.38
2022-11-18T04:25:59.803Z,982.32
2022-11-18T04:26:59.785Z,982.36
2022-11-18T04:27:59.770Z,982.34
2022-11-18T04:28:59.747Z,982.37
2022-11-18T04:29:59.797Z,982.38
2022-11-18T04:30:59.765Z,982.38
2022-11-18T04:31:59.723Z,982.37
2022-11-18T04:32:59.727Z,982.41
2022-11-18T04:33:59.732Z,982.45
2022-11-18T04:34:59.723Z,982.40
2022-11-18T04:35:59.712Z,982.42
2022-11-18T04:36:59.698Z,982.40
2022-11-18T04:37:59.750Z,982.43
2022-11-18T04:38:59.695Z,982.40
2022-11-18T04:39:59.691Z,982.47
2022-11-18T04:40:59.755Z,982.51
2022-11-18T04:41:59.700Z,982.52
2022-11-18T04:42:59.661Z,982.50
2022-11-18T04:43:59.647Z,982.51
2022-11-18T04:44:59.668Z,982.50
2022-11-18T04:45:59.659Z,982.60
2022-11-18T04:46:59.624Z,982.53
2022-11-18T04:48:03.493Z,982.61
2022-11-18T04:49:00.640Z,982.59
2022-11-18T04:49:59.662Z,982.54
2022-11-18T04:50:59.649Z,982.56
2022-11-18T04:51:59.601Z,982.56
2022-11-18T04:52:59.609Z,982.56
2022-11-18T04:53:59.708Z,982.57
2022-11-18T04:54:59.601Z,982.55
2022-11-18T04:55:59.582Z,982.57
2022-11-18T04:56:59.593Z,982.61
2022-11-18T04:57:59.588Z,982.63
2022-11-18T04:58:59.571Z,982.68
2022-11-18T04:59:59.608Z,982.62
2022-11-18T05:00:59.641Z,982.65
2022-11-18T05:01:59.556Z,982.67
2022-11-18T05:02:59.564Z,982.65
2022-11-18T05:03:59.530Z,982.63
2022-11-18T05:04:59.528Z,982.63
2022-11-18T05:05:59.555Z,982.62
2022-11-18T05:06:59.605Z,982.59
2022-11-18T05:07:59.521Z,982.66
2022-11-18T05:08:59.524Z,982.67
2022-11-18T05:09:59.500Z,982.65
2022-11-18T05:10:59.496Z,982.72
2022-11-18T05:11:59.529Z,982.68
2022-11-18T05:12:59.469Z,982.66
2022-11-18T05:13:59.480Z,982.70
2022-11-18T05:14:59.453Z,982.70
2022-11-18T05:15:59.501Z,982.69
2022-11-18T05:16:59.500Z,982.66
2022-11-18T05:17:59.476Z,982.71
2022-11-18T05:18:59.459Z,982.71
2022-11-18T05:19:59.456Z,982.73
2022-11-18T05:20:59.432Z,982.70
2022-11-18T05:21:59.424Z,982.73
2022-11-18T05:22:59.427Z,982.72
2022-11-18T05:23:59.441Z,982.78
2022-11-18T05:24:59.431Z,982.72
2022-11-18T05:26:02.412Z,982.72
2022-11-18T05:27:00.439Z,982.78
2022-11-18T05:27:59.398Z,982.74
2022-11-18T05:28:59.444Z,982.75
2022-11-18T05:29:59.360Z,982.68
2022-11-18T05:31:00.419Z,982.79
2022-11-18T05:31:59.363Z,982.78
2022-11-18T05:32:59.367Z,982.77
2022-11-18T05:33:59.367Z,982.83
2022-11-18T05:34:59.360Z,982.83
2022-11-18T05:35:59.341Z,982.80
2022-11-18T05:36:59.345Z,982.83
2022-11-18T05:37:59.349Z,982.85
2022-11-18T05:38:59.320Z,982.83
2022-11-18T05:39:59.341Z,982.90
2022-11-18T05:40:59.339Z,982.93
2022-11-18T05:41:59.297Z,982.88
2022-11-18T05:42:59.296Z,982.88
2022-11-18T05:43:59.325Z,982.90
2022-11-18T05:44:59.327Z,982.92
2022-11-18T05:45:59.293Z,982.90
2022-11-18T05:46:59.274Z,982.90
2022-11-18T05:47:59.262Z,982.95
2022-11-18T05:48:59.272Z,982.97
2022-11-18T05:49:59.260Z,982.99
2022-11-18T05:50:59.258Z,982.98
2022-11-18T05:51:59.265Z,983.04
2022-11-18T05:52:59.225Z,983.04
2022-11-18T05:53:59.232Z,983.03
2022-11-18T05:54:59.258Z,983.05
2022-11-18T05:55:59.220Z,983.04
2022-11-18T05:56:59.207Z,983.10
2022-11-18T05:57:59.191Z,983.10
2022-11-18T05:58:59.210Z,983.16
2022-11-18T05:59:59.252Z,983.10
2022-11-18T06:00:59.180Z,983.07
2022-11-18T06:01:59.183Z,983.10
2022-11-18T06:02:59.261Z,983.16
2022-11-18T06:03:59.190Z,983.19
2022-11-18T06:04:59.180Z,983.20
2022-11-18T06:05:59.137Z,983.19
2022-11-18T06:06:59.166Z,983.14
2022-11-18T06:07:59.133Z,983.17
2022-11-18T06:08:59.117Z,983.17
2022-11-18T06:10:04.780Z,983.23
2022-11-18T06:11:01.120Z,983.19
2022-11-18T06:11:59.099Z,983.20
2022-11-18T06:12:59.099Z,983.25
2022-11-18T06:13:59.086Z,983.22
2022-11-18T06:14:59.077Z,983.33
2022-11-18T06:15:59.095Z,983.30
2022-11-18T06:16:59.065Z,983.27
2022-11-18T06:17:59.053Z,983.32
2022-11-18T06:18:59.069Z,983.32
2022-11-18T06:19:59.053Z,983.33
2022-11-18T06:20:59.033Z,983.33
2022-11-18T06:21:59.083Z,983.33
2022-11-18T06:22:59.020Z,983.41
2022-11-18T06:23:59.037Z,983.31
2022-11-18T06:24:59.017Z,983.30
2022-11-18T06:25:59.016Z,983.42
2022-11-18T06:26:59.037Z,983.35
2022-11-18T06:27:58.993Z,983.42
2022-11-18T06:28:58.984Z,983.43
2022-11-18T06:29:59.016Z,983.46
2022-11-18T06:30:58.980Z,983.51
2022-11-18T06:31:59.024Z,983.46
2022-11-18T06:32:58.984Z,983.49
2022-11-18T06:33:58.975Z,983.50
2022-11-18T06:34:58.968Z,983.50
2022-11-18T06:35:58.953Z,983.42
2022-11-18T06:36:58.958Z,983.55
2022-11-18T06:37:58.933Z,983.51
2022-11-18T06:38:58.942Z,983.55
2022-11-18T06:39:58.913Z,983.54
2022-11-18T06:40:58.940Z,983.57
2022-11-18T06:41:58.934Z,983.53
2022-11-18T06:42:58.895Z,983.60
2022-11-18T06:43:58.999Z,983.54
2022-11-18T06:44:58.980Z,983.63
2022-11-18T06:45:58.882Z,983.68
2022-11-18T06:46:58.897Z,983.64
2022-11-18T06:47:58.891Z,983.59
2022-11-18T06:48:58.881Z,983.66
2022-11-18T06:49:58.868Z,983.69
2022-11-18T06:50:58.868Z,983.73
2022-11-18T06:51:58.852Z,983.68
2022-11-18T06:52:58.872Z,983.66
2022-11-18T06:53:58.831Z,983.72
2022-11-18T06:54:58.831Z,983.78
2022-11-18T06:55:58.815Z,983.75
2022-11-18T06:56:58.810Z,983.75
2022-11-18T06:57:59.515Z,983.82
2022-11-18T06:58:58.807Z,983.80
2022-11-18T07:00:02.007Z,983.84
2022-11-18T07:00:59.854Z,983.84
2022-11-18T07:01:58.780Z,983.82
2022-11-18T07:02:58.781Z,983.91
2022-11-18T07:03:58.801Z,983.88
2022-11-18T07:04:58.780Z,983.88
2022-11-18T07:05:58.744Z,983.96
2022-11-18T07:06:58.786Z,983.92
2022-11-18T07:07:58.823Z,983.92
2022-11-18T07:08:58.752Z,983.93
2022-11-18T07:09:58.729Z,983.91
2022-11-18T07:10:58.739Z,983.96
2022-11-18T07:11:58.718Z,983.95
2022-11-18T07:12:58.715Z,983.93
2022-11-18T07:13:58.711Z,983.98
2022-11-18T07:14:58.695Z,983.99
2022-11-18T07:15:58.700Z,983.98
2022-11-18T07:16:58.709Z,984.04
2022-11-18T07:17:58.684Z,984.01
2022-11-18T07:18:58.686Z,984.04
2022-11-18T07:19:58.664Z,984.09
2022-11-18T07:20:58.667Z,984.02
2022-11-18T07:21:58.671Z,983.99
2022-11-18T07:22:58.653Z,983.99
2022-11-18T07:23:58.668Z,984.03
2022-11-18T07:24:58.627Z,984.05
2022-11-18T07:25:58.629Z,984.03
2022-11-18T07:26:58.610Z,984.06
2022-11-18T07:27:58.617Z,984.12
2022-11-18T07:28:58.618Z,984.04
2022-11-18T07:29:58.602Z,984.08
2022-11-18T07:30:58.723Z,984.13
2022-11-18T07:31:58.591Z,984.18
2022-11-18T07:32:58.583Z,984.16
2022-11-18T07:33:59.593Z,984.20
2022-11-18T07:34:58.580Z,984.16
2022-11-18T07:35:58.565Z,984.11
2022-11-18T07:36:58.566Z,984.16
2022-11-18T07:37:58.573Z,984.18
2022-11-18T07:38:58.560Z,984.20
2022-11-18T07:39:58.544Z,984.18
2022-11-18T07:40:58.531Z,984.25
2022-11-18T07:41:58.533Z,984.20
2022-11-18T07:42:58.535Z,984.29
2022-11-18T07:44:00.786Z,984.26
2022-11-18T07:44:59.516Z,984.26
2022-11-18T07:45:58.499Z,984.29
2022-11-18T07:46:58.495Z,984.33
2022-11-18T07:47:58.492Z,984.34
2022-11-18T07:48:58.476Z,984.38
2022-11-18T07:49:59.504Z,984.38
2022-11-18T07:50:58.464Z,984.35
2022-11-18T07:51:58.458Z,984.36
2022-11-18T07:52:58.480Z,984.42
2022-11-18T07:53:58.456Z,984.38
2022-11-18T07:54:58.461Z,984.39
2022-11-18T07:55:58.437Z,984.40
2022-11-18T07:56:58.437Z,984.45
2022-11-18T07:57:58.429Z,984.43
2022-11-18T07:58:58.424Z,984.47
2022-11-18T07:59:58.437Z,984.43
2022-11-18T08:00:58.515Z,984.48
2022-11-18T08:01:58.465Z,984.47
2022-11-18T08:02:58.387Z,984.52
2022-11-18T08:03:58.392Z,984.49
2022-11-18T08:04:58.460Z,984.54
2022-11-18T08:05:58.376Z,984.53
2022-11-18T08:06:58.420Z,984.55
2022-11-18T08:07:58.357Z,984.58
2022-11-18T08:08:58.358Z,984.53
2022-11-18T08:09:58.353Z,984.59
2022-11-18T08:10:58.357Z,984.61
2022-11-18T08:11:58.337Z,984.60
2022-11-18T08:12:58.336Z,984.62
2022-11-18T08:13:58.320Z,984.63
2022-11-18T08:14:58.307Z,984.65
2022-11-18T08:15:58.327Z,984.65
2022-11-18T08:16:58.298Z,984.65
2022-11-18T08:17:58.305Z,984.68
2022-11-18T08:18:58.285Z,984.61
2022-11-18T08:19:58.277Z,984.71
2022-11-18T08:20:58.282Z,984.74
2022-11-18T08:21:58.292Z,984.72
2022-11-18T08:22:58.254Z,984.72
2022-11-18T08:23:58.249Z,984.70
2022-11-18T08:24:58.245Z,984.75
2022-11-18T08:25:58.245Z,984.81
2022-11-18T08:26:58.238Z,984.82
2022-11-18T08:27:58.230Z,984.83
2022-11-18T08:28:58.334Z,984.77
2022-11-18T08:29:58.204Z,984.73
2022-11-18T08:30:58.207Z,984.81
2022-11-18T08:31:58.197Z,984.85
2022-11-18T08:32:58.188Z,984.80
2022-11-18T08:33:58.192Z,984.82
2022-11-18T08:34:58.187Z,984.78
2022-11-18T08:35:58.174Z,984.82
2022-11-18T08:36:58.157Z,984.85
2022-11-18T08:37:58.144Z,984.86
2022-11-18T08:38:58.157Z,984.83
2022-11-18T08:39:58.133Z,984.86
2022-11-18T08:40:58.128Z,984.86
2022-11-18T08:41:58.112Z,984.84
2022-11-18T08:42:58.120Z,984.88
2022-11-18T08:43:58.115Z,984.89
2022-11-18T08:44:58.132Z,984.86
2022-11-18T08:45:58.098Z,984.91
2022-11-18T08:46:58.101Z,984.84
2022-11-18T08:47:58.074Z,984.92
2022-11-18T08:48:58.078Z,984.90
2022-11-18T08:49:58.068Z,984.89
2022-11-18T08:50:58.054Z,984.91
2022-11-18T08:51:58.056Z,984.84
2022-11-18T08:52:58.048Z,984.86
2022-11-18T08:53:58.025Z,984.89
2022-11-18T08:54:58.028Z,984.86
2022-11-18T08:55:58.021Z,984.85
2022-11-18T08:56:58.020Z,984.90
2022-11-18T08:57:58.009Z,984.90
2022-11-18T08:58:58.021Z,984.98
2022-11-18T08:59:58.005Z,984.96
2022-11-18T09:00:58.029Z,984.93
2022-11-18T09:01:58.039Z,984.98
2022-11-18T09:03:32.074Z,985.01
2022-11-18T09:03:58.012Z,984.97
2022-11-18T09:04:57.948Z,984.99
2022-11-18T09:06:30.371Z,984.95
2022-11-18T09:06:57.979Z,984.93
2022-11-18T09:07:57.950Z,984.96
2022-11-18T09:09:30.392Z,985.00
2022-11-18T09:09:57.948Z,984.99
2022-11-18T09:11:30.324Z,985.02
2022-11-18T09:12:30.344Z,985.05
2022-11-18T09:15:12.519Z,985.00
2022-11-18T09:15:15.247Z,985.00
2022-11-18T09:15:59.876Z,984.98
2022-11-18T09:16:57.898Z,984.98
2022-11-18T09:18:30.295Z,985.01
2022-11-18T09:18:57.868Z,985.00
2022-11-18T09:19:57.862Z,985.03
2022-11-18T09:20:57.849Z,985.04
2022-11-18T09:21:57.863Z,985.00
2022-11-18T09:22:57.825Z,985.00
2022-11-18T09:23:57.848Z,984.99
2022-11-18T09:25:30.265Z,985.02
2022-11-18T09:25:57.812Z,985.02
2022-11-18T09:26:57.808Z,985.08
2022-11-18T09:27:57.845Z,985.03
2022-11-18T09:28:57.800Z,985.07
2022-11-18T09:29:57.787Z,985.04
2022-11-18T09:30:57.771Z,985.00
2022-11-18T09:31:57.779Z,985.08
2022-11-18T09:32:57.783Z,985.13
2022-11-18T09:33:57.751Z,985.15
2022-11-18T09:34:57.753Z,985.15
2022-11-18T09:35:57.713Z,985.17
2022-11-18T09:36:57.737Z,985.22
2022-11-18T09:37:57.728Z,985.18
2022-11-18T09:38:57.744Z,985.12
2022-11-18T09:39:57.715Z,985.16
2022-11-18T09:40:57.725Z,985.16
2022-11-18T09:41:57.695Z,985.17
2022-11-18T09:42:57.687Z,985.20
2022-11-18T09:43:57.745Z,985.21
2022-11-18T09:44:57.671Z,985.22
2022-11-18T09:45:57.668Z,985.21
2022-11-18T09:46:57.689Z,985.26
2022-11-18T09:47:57.655Z,985.23
2022-11-18T09:48:57.651Z,985.27
2022-11-18T09:49:57.691Z,985.25
2022-11-18T09:50:57.642Z,985.27
2022-11-18T09:51:57.640Z,985.26
2022-11-18T09:52:57.614Z,985.28
2022-11-18T09:53:57.608Z,985.30
2022-11-18T09:55:29.584Z,985.31
2022-11-18T09:55:57.614Z,985.30
2022-11-18T09:56:57.613Z,985.34
2022-11-18T09:57:57.587Z,985.37
2022-11-18T09:58:57.583Z,985.37
2022-11-18T09:59:57.599Z,985.35
2022-11-18T10:00:57.580Z,985.35
2022-11-18T10:01:57.628Z,985.36
2022-11-18T10:02:57.558Z,985.33
2022-11-18T10:03:57.555Z,985.36
2022-11-18T10:04:57.528Z,985.39
2022-11-18T10:05:57.552Z,985.36
2022-11-18T10:06:57.549Z,985.37
2022-11-18T10:07:57.505Z,985.40
2022-11-18T10:08:57.506Z,985.38
2022-11-18T10:09:57.501Z,985.47
2022-11-18T10:10:57.501Z,985.40
2022-11-18T10:11:57.504Z,985.41
2022-11-18T10:12:57.479Z,985.47
2022-11-18T10:13:57.486Z,985.48
2022-11-18T10:14:57.474Z,985.47
2022-11-18T10:15:57.458Z,985.47
2022-11-18T10:16:58.252Z,985.54
2022-11-18T10:17:58.449Z,985.51
2022-11-18T10:19:01.286Z,985.54
2022-11-18T10:19:58.525Z,985.55
2022-11-18T10:20:57.428Z,985.54
2022-11-18T10:21:57.417Z,985.53
2022-11-18T10:22:57.427Z,985.55
2022-11-18T10:23:57.414Z,985.53
2022-11-18T10:24:57.389Z,985.59
2022-11-18T10:25:57.390Z,985.60
2022-11-18T10:26:57.429Z,985.56
2022-11-18T10:27:57.475Z,985.61
2022-11-18T10:28:57.362Z,985.58
2022-11-18T10:29:57.391Z,985.60
2022-11-18T10:30:57.343Z,985.65
2022-11-18T10:31:59.730Z,985.65
2022-11-18T10:32:59.343Z,985.67
2022-11-18T10:33:57.322Z,985.65
2022-11-18T10:34:57.332Z,985.64
2022-11-18T10:35:57.347Z,985.71
2022-11-18T10:36:57.307Z,985.67
2022-11-18T10:38:12.730Z,985.75
2022-11-18T10:38:59.315Z,985.75
2022-11-18T10:39:57.355Z,985.75
2022-11-18T10:40:57.319Z,985.72
2022-11-18T10:41:57.282Z,985.82
2022-11-18T10:42:57.289Z,985.78
2022-11-18T10:43:57.253Z,985.76
2022-11-18T10:44:58.250Z,985.79
2022-11-18T10:45:57.251Z,985.78
2022-11-18T10:46:57.237Z,985.79
2022-11-18T10:47:57.258Z,985.79
2022-11-18T10:48:57.230Z,985.78
2022-11-18T10:49:57.304Z,985.78
2022-11-18T10:50:57.221Z,985.77
2022-11-18T10:51:57.207Z,985.75
2022-11-18T10:52:57.194Z,985.78
2022-11-18T10:53:57.210Z,985.83
2022-11-18T10:54:57.190Z,985.76
2022-11-18T10:55:57.198Z,985.78
2022-11-18T10:56:58.470Z,985.75
2022-11-18T10:57:58.170Z,985.79
2022-11-18T10:58:57.209Z,985.78
2022-11-18T10:59:57.406Z,985.77
2022-11-18T11:00:57.152Z,985.83
2022-11-18T11:01:57.207Z,985.81
2022-11-18T11:02:57.126Z,985.83
2022-11-18T11:03:57.170Z,985.81
2022-11-18T11:04:57.125Z,985.83
2022-11-18T11:05:57.147Z,985.85
2022-11-18T11:06:57.130Z,985.86
2022-11-18T11:08:14.586Z,985.81
2022-11-18T11:08:59.126Z,985.83
2022-11-18T11:09:57.096Z,985.84
2022-11-18T11:10:57.078Z,985.82
2022-11-18T11:11:57.073Z,985.87
2022-11-18T11:12:57.084Z,985.87
2022-11-18T11:13:57.115Z,985.88
2022-11-18T11:14:57.096Z,985.88
2022-11-18T11:15:57.082Z,985.90
2022-11-18T11:16:57.087Z,985.90
2022-11-18T11:17:57.089Z,985.85
2022-11-18T11:18:57.026Z,985.93
2022-11-18T11:19:57.030Z,985.93
2022-11-18T11:20:57.038Z,985.87
2022-11-18T11:21:56.993Z,985.88
2022-11-18T11:22:57.063Z,985.95
2022-11-18T11:23:56.986Z,985.95
2022-11-18T11:24:56.979Z,985.94
2022-11-18T11:28:14.534Z,986.05
2022-11-18T11:28:58.942Z,986.01
2022-11-18T11:29:56.943Z,986.09
2022-11-18T11:30:57.943Z,985.92
2022-11-18T11:31:56.933Z,985.92
2022-11-18T11:32:56.935Z,985.93
2022-11-18T11:33:56.905Z,985.95
2022-11-18T11:34:56.910Z,985.93
2022-11-18T11:35:56.907Z,985.91
2022-11-18T11:36:56.906Z,985.97
2022-11-18T11:37:56.914Z,985.95
2022-11-18T11:39:02.949Z,985.96
2022-11-18T11:39:58.889Z,985.95
2022-11-18T11:40:56.881Z,986.01
2022-11-18T11:41:56.879Z,986.00
2022-11-18T11:42:56.868Z,986.03
2022-11-18T11:43:56.854Z,986.03
2022-11-18T11:44:56.838Z,986.03
2022-11-18T11:45:56.929Z,986.01
2022-11-18T11:46:56.858Z,986.03
2022-11-18T11:47:56.818Z,986.08
2022-11-18T11:48:56.820Z,986.06
2022-11-18T11:49:56.798Z,986.06
2022-11-18T11:51:03.563Z,986.06
2022-11-18T11:51:58.789Z,986.07
2022-11-18T11:52:56.783Z,986.06
2022-11-18T11:53:56.800Z,986.07
2022-11-18T11:54:56.781Z,986.06
2022-11-18T11:55:56.775Z,986.07
2022-11-18T11:56:56.776Z,986.07
2022-11-18T11:57:56.756Z,986.09
2022-11-18T11:58:56.752Z,986.05
2022-11-18T11:59:56.744Z,986.12
2022-11-18T12:00:56.737Z,986.08
2022-11-18T12:01:56.740Z,986.08
2022-11-18T12:02:56.784Z,986.10
2022-11-18T12:03:56.721Z,986.15
2022-11-18T12:04:56.713Z,986.08
2022-11-18T12:05:56.700Z,986.11
2022-11-18T12:06:57.775Z,986.11
2022-11-18T12:07:56.676Z,986.08
2022-11-18T12:08:56.748Z,986.24
2022-11-18T12:09:56.675Z,986.22
2022-11-18T12:10:56.652Z,986.16
2022-11-18T12:11:56.659Z,986.11
2022-11-18T12:12:56.668Z,986.11
2022-11-18T12:13:56.661Z,986.15
2022-11-18T12:14:56.660Z,986.21
2022-11-18T12:15:57.612Z,986.11
2022-11-18T12:16:56.671Z,986.13
2022-11-18T12:17:56.616Z,986.13
2022-11-18T12:18:56.630Z,986.17
2022-11-18T12:19:56.625Z,986.15
2022-11-18T12:20:56.612Z,986.12
2022-11-18T12:21:56.577Z,986.19
2022-11-18T12:22:56.584Z,986.16
2022-11-18T12:23:56.604Z,986.13
2022-11-18T12:24:57.572Z,986.15
2022-11-18T12:25:56.564Z,986.11
2022-11-18T12:26:56.561Z,986.17
2022-11-18T12:27:58.894Z,986.14
2022-11-18T12:28:57.563Z,986.19
2022-11-18T12:29:56.564Z,986.14
2022-11-18T12:30:56.561Z,986.13